SWA807 KFLL-KMCO
Flight info
| Callsign | SWA807 |
|---|---|
| Flight time | 0h 35m |
| Altitude | 22000 |
| Route | FRSBE2 WAPOM MUNGI1 |
| Aircraft | B738/M-SDE2E3FGHIRWXY/LB1 |
Departure
| Time | 2026-04-22 02:56 |
|---|---|
| Airport | Fort Lauderdale Hollywood International Airport (KFLL) |
Arrival
| Time | 2026-04-22 03:31 |
|---|---|
| Airport | Orlando International Airport (KMCO) |
| Time | Latitude | Longitude | Altitude | Speed | Heading |
|---|---|---|---|---|---|
| 2026-04-22 02:38 | 26.07379 | -80.14701 | 22 ft | 0 kts | 189° |
| 2026-04-22 02:48 | 26.07380 | -80.14701 | 22 ft | 2 kts | 189° |
| 2026-04-22 02:48 | 26.07396 | -80.14698 | 26 ft | 2 kts | 189° |
| 2026-04-22 02:48 | 26.07412 | -80.14695 | 25 ft | 2 kts | 189° |
| 2026-04-22 02:48 | 26.07428 | -80.14692 | 26 ft | 2 kts | 195° |
| 2026-04-22 02:49 | 26.07443 | -80.14684 | 28 ft | 2 kts | 248° |
| 2026-04-22 02:49 | 26.07445 | -80.14674 | 27 ft | 1 kts | 281° |
| 2026-04-22 02:49 | 26.07445 | -80.14672 | 27 ft | 0 kts | 281° |
| 2026-04-22 02:50 | 26.07445 | -80.14673 | 27 ft | 0 kts | 281° |
| 2026-04-22 02:50 | 26.07447 | -80.14679 | 27 ft | 1 kts | 291° |
| 2026-04-22 02:50 | 26.07453 | -80.14688 | 24 ft | 2 kts | 313° |
| 2026-04-22 02:50 | 26.07463 | -80.14699 | 27 ft | 3 kts | 315° |
| 2026-04-22 02:51 | 26.07483 | -80.14721 | 24 ft | 6 kts | 313° |
| 2026-04-22 02:51 | 26.07517 | -80.14765 | 22 ft | 9 kts | 312° |
| 2026-04-22 02:51 | 26.07559 | -80.14826 | 22 ft | 11 kts | 286° |
| 2026-04-22 02:51 | 26.07562 | -80.14924 | 20 ft | 15 kts | 270° |
| 2026-04-22 02:52 | 26.07562 | -80.15050 | 18 ft | 18 kts | 270° |
| 2026-04-22 02:52 | 26.07564 | -80.15201 | 16 ft | 21 kts | 271° |
| 2026-04-22 02:52 | 26.07564 | -80.15368 | 16 ft | 22 kts | 271° |
| 2026-04-22 02:52 | 26.07565 | -80.15544 | 16 ft | 23 kts | 270° |
| 2026-04-22 02:53 | 26.07566 | -80.15718 | 18 ft | 22 kts | 270° |
| 2026-04-22 02:53 | 26.07567 | -80.15887 | 22 ft | 22 kts | 270° |
| 2026-04-22 02:53 | 26.07568 | -80.16052 | 23 ft | 21 kts | 270° |
| 2026-04-22 02:53 | 26.07570 | -80.16212 | 25 ft | 21 kts | 270° |
| 2026-04-22 02:54 | 26.07571 | -80.16370 | 25 ft | 21 kts | 270° |
| 2026-04-22 02:54 | 26.07572 | -80.16540 | 23 ft | 23 kts | 270° |
| 2026-04-22 02:54 | 26.07608 | -80.16642 | 21 ft | 15 kts | 349° |
| 2026-04-22 02:54 | 26.07694 | -80.16620 | 21 ft | 11 kts | 66° |
| 2026-04-22 02:55 | 26.07695 | -80.16528 | 22 ft | 22 kts | 91° |
| 2026-04-22 02:55 | 26.07690 | -80.16103 | 23 ft | 87 kts | 91° |
| 2026-04-22 02:55 | 26.07694 | -80.15235 | 31 ft | 137 kts | 90° |
| 2026-04-22 02:55 | 26.07665 | -80.14079 | 319 ft | 158 kts | 89° |
| 2026-04-22 02:56 | 26.07630 | -80.12795 | 708 ft | 180 kts | 87° |
| 2026-04-22 02:56 | 26.07655 | -80.11331 | 1033 ft | 196 kts | 86° |
| 2026-04-22 02:56 | 26.07901 | -80.09748 | 1269 ft | 219 kts | 70° |
| 2026-04-22 02:56 | 26.08571 | -80.08174 | 2014 ft | 230 kts | 54° |
| 2026-04-22 02:57 | 26.09754 | -80.06948 | 2910 ft | 238 kts | 36° |
| 2026-04-22 02:57 | 26.11269 | -80.06197 | 3916 ft | 241 kts | 24° |
| 2026-04-22 02:57 | 26.12891 | -80.05546 | 4676 ft | 252 kts | 24° |
| 2026-04-22 02:57 | 26.14561 | -80.04918 | 5621 ft | 256 kts | 16° |
| 2026-04-22 02:58 | 26.16364 | -80.04932 | 6442 ft | 268 kts | 350° |
| 2026-04-22 02:58 | 26.18163 | -80.05574 | 7202 ft | 276 kts | 342° |
| 2026-04-22 02:58 | 26.19964 | -80.06288 | 8117 ft | 274 kts | 341° |
| 2026-04-22 02:58 | 26.21698 | -80.07190 | 8915 ft | 280 kts | 322° |
| 2026-04-22 02:59 | 26.22962 | -80.08855 | 9706 ft | 287 kts | 300° |
| 2026-04-22 02:59 | 26.23790 | -80.10894 | 10490 ft | 291 kts | 292° |
| 2026-04-22 02:59 | 26.24530 | -80.13071 | 10831 ft | 312 kts | 291° |
| 2026-04-22 02:59 | 26.25329 | -80.15426 | 11070 ft | 335 kts | 292° |
| 2026-04-22 03:00 | 26.26351 | -80.17803 | 11601 ft | 344 kts | 301° |
| 2026-04-22 03:00 | 26.27625 | -80.20077 | 12319 ft | 348 kts | 303° |
| 2026-04-22 03:00 | 26.28968 | -80.22339 | 13062 ft | 351 kts | 304° |
| 2026-04-22 03:00 | 26.30302 | -80.24580 | 13852 ft | 353 kts | 304° |
| 2026-04-22 03:01 | 26.31654 | -80.26879 | 14501 ft | 357 kts | 303° |
| 2026-04-22 03:01 | 26.33004 | -80.29208 | 15194 ft | 359 kts | 303° |
| 2026-04-22 03:01 | 26.34338 | -80.31536 | 16093 ft | 354 kts | 303° |
| 2026-04-22 03:01 | 26.35666 | -80.33867 | 16750 ft | 358 kts | 302° |
| 2026-04-22 03:02 | 26.37012 | -80.36238 | 17290 ft | 365 kts | 302° |
| 2026-04-22 03:02 | 26.38369 | -80.38634 | 18127 ft | 362 kts | 302° |
| 2026-04-22 03:02 | 26.39700 | -80.40985 | 19021 ft | 356 kts | 302° |
| 2026-04-22 03:02 | 26.41013 | -80.43308 | 19811 ft | 352 kts | 302° |
| 2026-04-22 03:03 | 26.42315 | -80.45611 | 20578 ft | 349 kts | 302° |
| 2026-04-22 03:03 | 26.43605 | -80.47895 | 21377 ft | 346 kts | 301° |
| 2026-04-22 03:03 | 26.44873 | -80.50139 | 21947 ft | 346 kts | 301° |
| 2026-04-22 03:03 | 26.46155 | -80.52410 | 22252 ft | 345 kts | 301° |
| 2026-04-22 03:04 | 26.47481 | -80.54653 | 22238 ft | 346 kts | 309° |
| 2026-04-22 03:04 | 26.48636 | -80.55889 | 22270 ft | 347 kts | 321° |
| 2026-04-22 03:04 | 26.50738 | -80.57233 | 22269 ft | 352 kts | 336° |
| 2026-04-22 03:04 | 26.53075 | -80.58067 | 22278 ft | 354 kts | 340° |
| 2026-04-22 03:05 | 26.56255 | -80.59050 | 22292 ft | 355 kts | 341° |
| 2026-04-22 03:05 | 26.57832 | -80.59525 | 22281 ft | 355 kts | 341° |
| 2026-04-22 03:05 | 26.60223 | -80.60250 | 22280 ft | 355 kts | 341° |
| 2026-04-22 03:05 | 26.62607 | -80.60984 | 22282 ft | 355 kts | 341° |
| 2026-04-22 03:06 | 26.64990 | -80.61728 | 22271 ft | 355 kts | 341° |
| 2026-04-22 03:06 | 26.67373 | -80.62479 | 22268 ft | 355 kts | 341° |
| 2026-04-22 03:06 | 26.69748 | -80.63231 | 22282 ft | 355 kts | 341° |
| 2026-04-22 03:06 | 26.72122 | -80.63985 | 22266 ft | 355 kts | 341° |
| 2026-04-22 03:07 | 26.74497 | -80.64741 | 22271 ft | 354 kts | 341° |
| 2026-04-22 03:07 | 26.76840 | -80.65487 | 22271 ft | 354 kts | 341° |
| 2026-04-22 03:07 | 26.79204 | -80.66241 | 22268 ft | 354 kts | 341° |
| 2026-04-22 03:07 | 26.81572 | -80.66996 | 22271 ft | 353 kts | 341° |
| 2026-04-22 03:08 | 26.83934 | -80.67750 | 22282 ft | 353 kts | 341° |
| 2026-04-22 03:08 | 26.86298 | -80.68504 | 22285 ft | 353 kts | 341° |
| 2026-04-22 03:08 | 26.88664 | -80.69259 | 22276 ft | 353 kts | 341° |
| 2026-04-22 03:08 | 26.91025 | -80.70013 | 22272 ft | 353 kts | 341° |
| 2026-04-22 03:09 | 26.93370 | -80.70822 | 22279 ft | 352 kts | 339° |
| 2026-04-22 03:09 | 26.95694 | -80.71698 | 22278 ft | 352 kts | 338° |
| 2026-04-22 03:09 | 26.98012 | -80.72593 | 22280 ft | 352 kts | 338° |
| 2026-04-22 03:09 | 27.00327 | -80.73487 | 22287 ft | 352 kts | 338° |
| 2026-04-22 03:10 | 27.02646 | -80.74377 | 22278 ft | 352 kts | 338° |
| 2026-04-22 03:10 | 27.04970 | -80.75265 | 22297 ft | 352 kts | 338° |
| 2026-04-22 03:10 | 27.07139 | -80.76089 | 22267 ft | 346 kts | 338° |
| 2026-04-22 03:10 | 27.09390 | -80.76942 | 22039 ft | 342 kts | 338° |
| 2026-04-22 03:11 | 27.11658 | -80.77801 | 21791 ft | 339 kts | 338° |
| 2026-04-22 03:11 | 27.13888 | -80.78646 | 21439 ft | 337 kts | 338° |
| 2026-04-22 03:11 | 27.16075 | -80.79476 | 21105 ft | 335 kts | 339° |
| 2026-04-22 03:11 | 27.18283 | -80.80313 | 20765 ft | 334 kts | 339° |
| 2026-04-22 03:12 | 27.20479 | -80.81146 | 20415 ft | 333 kts | 339° |
| 2026-04-22 03:12 | 27.24928 | -80.82837 | 19404 ft | 341 kts | 339° |
| 2026-04-22 03:12 | 27.27163 | -80.83685 | 18998 ft | 337 kts | 340° |
| 2026-04-22 03:13 | 27.29359 | -80.84519 | 18650 ft | 331 kts | 340° |
| 2026-04-22 03:13 | 27.31532 | -80.85344 | 18245 ft | 327 kts | 340° |
| 2026-04-22 03:13 | 27.33686 | -80.86106 | 17772 ft | 324 kts | 343° |
| 2026-04-22 03:13 | 27.35848 | -80.86762 | 17400 ft | 319 kts | 344° |
| 2026-04-22 03:14 | 27.37981 | -80.87379 | 17049 ft | 315 kts | 345° |
| 2026-04-22 03:14 | 27.40099 | -80.87988 | 16716 ft | 314 kts | 345° |
| 2026-04-22 03:14 | 27.42217 | -80.88602 | 16398 ft | 313 kts | 345° |
| 2026-04-22 03:14 | 27.44321 | -80.89217 | 16070 ft | 312 kts | 345° |
| 2026-04-22 03:15 | 27.46419 | -80.89835 | 15746 ft | 311 kts | 345° |
| 2026-04-22 03:15 | 27.48512 | -80.90454 | 15425 ft | 311 kts | 345° |
| 2026-04-22 03:15 | 27.50605 | -80.91075 | 15092 ft | 310 kts | 345° |
| 2026-04-22 03:15 | 27.52689 | -80.91694 | 14770 ft | 310 kts | 344° |
| 2026-04-22 03:16 | 27.54771 | -80.92314 | 14449 ft | 309 kts | 345° |
| 2026-04-22 03:16 | 27.56829 | -80.92927 | 14122 ft | 309 kts | 345° |
| 2026-04-22 03:16 | 27.58903 | -80.93546 | 13751 ft | 306 kts | 345° |
| 2026-04-22 03:16 | 27.60944 | -80.94154 | 13407 ft | 300 kts | 345° |
| 2026-04-22 03:17 | 27.62943 | -80.94751 | 13091 ft | 295 kts | 345° |
| 2026-04-22 03:17 | 27.64940 | -80.95347 | 12779 ft | 297 kts | 345° |
| 2026-04-22 03:17 | 27.66937 | -80.95944 | 12464 ft | 297 kts | 345° |
| 2026-04-22 03:17 | 27.68940 | -80.96543 | 12145 ft | 297 kts | 345° |
| 2026-04-22 03:18 | 27.70931 | -80.97138 | 11829 ft | 296 kts | 345° |
| 2026-04-22 03:18 | 27.72921 | -80.97733 | 11514 ft | 295 kts | 345° |
| 2026-04-22 03:18 | 27.74904 | -80.98327 | 11202 ft | 295 kts | 346° |
| 2026-04-22 03:18 | 27.76886 | -80.98920 | 10890 ft | 294 kts | 345° |
| 2026-04-22 03:19 | 27.78864 | -80.99513 | 10568 ft | 294 kts | 346° |
| 2026-04-22 03:19 | 27.80843 | -81.00105 | 10259 ft | 293 kts | 346° |
| 2026-04-22 03:19 | 27.82782 | -81.00687 | 10105 ft | 283 kts | 346° |
| 2026-04-22 03:19 | 27.84649 | -81.01247 | 9941 ft | 272 kts | 346° |
| 2026-04-22 03:20 | 27.86443 | -81.01785 | 9645 ft | 268 kts | 346° |
| 2026-04-22 03:20 | 27.88246 | -81.02326 | 9381 ft | 268 kts | 346° |
| 2026-04-22 03:20 | 27.90053 | -81.02868 | 9111 ft | 269 kts | 346° |
| 2026-04-22 03:20 | 27.91869 | -81.03413 | 8827 ft | 271 kts | 346° |
| 2026-04-22 03:21 | 27.93704 | -81.03974 | 8554 ft | 273 kts | 344° |
| 2026-04-22 03:21 | 27.95499 | -81.04682 | 8267 ft | 273 kts | 341° |
| 2026-04-22 03:21 | 27.97273 | -81.05450 | 7979 ft | 273 kts | 341° |
| 2026-04-22 03:21 | 27.99046 | -81.06223 | 7703 ft | 272 kts | 341° |
| 2026-04-22 03:22 | 28.00815 | -81.06987 | 7422 ft | 272 kts | 341° |
| 2026-04-22 03:22 | 28.02582 | -81.07743 | 7139 ft | 271 kts | 342° |
| 2026-04-22 03:22 | 28.04333 | -81.08488 | 6856 ft | 266 kts | 342° |
| 2026-04-22 03:22 | 28.06053 | -81.09217 | 6573 ft | 261 kts | 342° |
| 2026-04-22 03:23 | 28.07720 | -81.09925 | 6453 ft | 252 kts | 343° |
| 2026-04-22 03:23 | 28.09349 | -81.10610 | 6322 ft | 249 kts | 343° |
| 2026-04-22 03:23 | 28.10970 | -81.11287 | 6216 ft | 247 kts | 343° |
| 2026-04-22 03:23 | 28.12553 | -81.11948 | 6100 ft | 237 kts | 344° |
| 2026-04-22 03:24 | 28.14047 | -81.12574 | 5998 ft | 227 kts | 344° |
| 2026-04-22 03:24 | 28.15525 | -81.13234 | 5750 ft | 234 kts | 335° |
| 2026-04-22 03:24 | 28.16667 | -81.14589 | 5487 ft | 246 kts | 302° |
| 2026-04-22 03:24 | 28.17492 | -81.16316 | 5174 ft | 252 kts | 301° |
| 2026-04-22 03:25 | 28.18302 | -81.18083 | 4908 ft | 252 kts | 300° |
| 2026-04-22 03:25 | 28.19081 | -81.19842 | 4680 ft | 246 kts | 299° |
| 2026-04-22 03:25 | 28.19824 | -81.21535 | 4456 ft | 235 kts | 299° |
| 2026-04-22 03:25 | 28.20546 | -81.23185 | 4268 ft | 235 kts | 299° |
| 2026-04-22 03:26 | 28.21283 | -81.24868 | 4058 ft | 240 kts | 298° |
| 2026-04-22 03:26 | 28.22030 | -81.26566 | 3875 ft | 240 kts | 303° |
| 2026-04-22 03:26 | 28.23193 | -81.27823 | 3678 ft | 228 kts | 342° |
| 2026-04-22 03:26 | 28.24715 | -81.28067 | 3462 ft | 221 kts | 6° |
| 2026-04-22 03:27 | 28.26247 | -81.28067 | 3150 ft | 219 kts | 4° |
| 2026-04-22 03:27 | 28.27736 | -81.28087 | 2853 ft | 208 kts | 5° |
| 2026-04-22 03:27 | 28.29132 | -81.28104 | 2593 ft | 194 kts | 5° |
| 2026-04-22 03:27 | 28.30434 | -81.28119 | 2347 ft | 182 kts | 5° |
| 2026-04-22 03:28 | 28.31631 | -81.28132 | 2154 ft | 167 kts | 6° |
| 2026-04-22 03:28 | 28.32784 | -81.28143 | 1901 ft | 158 kts | 6° |
| 2026-04-22 03:28 | 28.33860 | -81.28153 | 1703 ft | 152 kts | 6° |
| 2026-04-22 03:28 | 28.34907 | -81.28162 | 1502 ft | 153 kts | 5° |
| 2026-04-22 03:29 | 28.35981 | -81.28174 | 1313 ft | 154 kts | 5° |
| 2026-04-22 03:29 | 28.37050 | -81.28185 | 1105 ft | 153 kts | 5° |
| 2026-04-22 03:29 | 28.38113 | -81.28194 | 887 ft | 153 kts | 4° |
| 2026-04-22 03:29 | 28.39174 | -81.28202 | 684 ft | 150 kts | 2° |
| 2026-04-22 03:30 | 28.40209 | -81.28211 | 472 ft | 147 kts | 2° |
| 2026-04-22 03:30 | 28.41231 | -81.28228 | 280 ft | 145 kts | 1° |
| 2026-04-22 03:30 | 28.42223 | -81.28236 | 122 ft | 140 kts | 2° |
| 2026-04-22 03:30 | 28.43082 | -81.28244 | 99 ft | 96 kts | 357° |
| 2026-04-22 03:31 | 28.43534 | -81.28249 | 100 ft | 42 kts | 359° |
| 2026-04-22 03:31 | 28.43801 | -81.28274 | 106 ft | 34 kts | 335° |
| 2026-04-22 03:31 | 28.43875 | -81.28495 | 106 ft | 31 kts | 269° |
| 2026-04-22 03:31 | 28.43874 | -81.28731 | 105 ft | 29 kts | 269° |
| 2026-04-22 03:32 | 28.43872 | -81.28955 | 106 ft | 27 kts | 270° |
| 2026-04-22 03:32 | 28.43871 | -81.29165 | 99 ft | 23 kts | 269° |
| 2026-04-22 03:32 | 28.43814 | -81.29263 | 100 ft | 15 kts | 182° |
| 2026-04-22 03:32 | 28.43713 | -81.29263 | 101 ft | 14 kts | 179° |
| 2026-04-22 03:33 | 28.43613 | -81.29261 | 102 ft | 15 kts | 179° |
| 2026-04-22 03:33 | 28.43554 | -81.29334 | 105 ft | 15 kts | 269° |
| 2026-04-22 03:33 | 28.43553 | -81.29448 | 105 ft | 15 kts | 269° |
| 2026-04-22 03:33 | 28.43552 | -81.29576 | 104 ft | 18 kts | 270° |
| 2026-04-22 03:34 | 28.43551 | -81.29729 | 102 ft | 20 kts | 270° |
| 2026-04-22 03:34 | 28.43546 | -81.29886 | 100 ft | 21 kts | 257° |
| 2026-04-22 03:34 | 28.43514 | -81.30007 | 100 ft | 10 kts | 273° |
| 2026-04-22 03:34 | 28.43510 | -81.30040 | 100 ft | 0 kts | 258° |